Weather History for KVYS - August, 2013

Change the Weather History Date:

Wednesday, August 28, 2013

  Actual Average Record
Temperature  
Mean Temperature 80 °F -  
Max Temperature 88 °F 83 °F 95 °F (1976)
Min Temperature 72 °F 59 °F 33 °F (2006)
Cooling Degree Days 15    
Growing Degree Days 30 (Base 50)    
Moisture  
Dew Point 70 °F    
Average Humidity 72    
Maximum Humidity 84    
Minimum Humidity 58    
Precipitation  
Precipitation 0.00 in - - ()
Sea Level Pressure  
Sea Level Pressure 29.96 in    
Wind  
Wind Speed 9 mph (NNW)    
Max Wind Speed 14 mph    
Max Gust Speed 21 mph    
Visibility 10 miles    
Events      
Averages and records for this station are not official NWS values.
T = Trace of Precipitation, MM = Missing Value Source: NWS Daily Summary

Daily Weather History Graph

Daily Weather History Graph

Search for Another Location

Airport or City:

Trip Planner

Search our weather history database for the weather conditions in past years. The results will help you decide how hot, cold, wet, or windy it might be!

Date:

Astronomy

Aug. 28, 2013 Rise Set
Actual Time 6:19 AM CDT 7:35 PM CDT
Civil Twilight 5:50 AM CDT 8:04 PM CDT
Nautical Twilight 5:16 AM CDT 8:38 PM CDT
Astronomical Twilight 4:39 AM CDT 9:14 PM CDT
Moon No Moon Rise 2:14 PM CDT
Length of Visible Light 14h 13m
Length of Day
13h 16m
Waning Gibbous, 47% of the Moon is Illuminated
Aug 28
Waning Gibbous
Sep 5
New
Sep 12
First Quarter
Sep 19
Full
Sep 26
Last Quarter

Hourly Weather History & Observations

Time (CDT) Temp. Heat Index Dew Point Humidity Pressure Visibility Wind Dir Wind Speed Gust Speed Precip Events Conditions
12:15 AM 80.2 °F 81.9 °F 64.4 °F 58% 29.91 in 10.0 mi WSW 12.7 mph 20.7 mph N/A   Clear
12:35 AM 80.2 °F 82.0 °F 64.8 °F 59% 29.91 in 10.0 mi WSW 11.5 mph 18.4 mph N/A   Clear
12:55 AM 80.2 °F 82.0 °F 64.8 °F 59% 29.91 in 10.0 mi WSW 12.7 mph - N/A   Clear
1:15 AM 80.2 °F 82.0 °F 64.8 °F 59% 29.90 in 10.0 mi WSW 13.8 mph - N/A   Clear
1:35 AM 79.2 °F - 64.2 °F 60% 29.90 in 10.0 mi WSW 10.4 mph - N/A   Clear
1:55 AM 78.6 °F - 64.0 °F 61% 29.89 in 10.0 mi WSW 13.8 mph - N/A   Clear
2:15 AM 78.3 °F - 64.4 °F 62% 29.89 in 10.0 mi WSW 11.5 mph - N/A   Clear
2:35 AM 78.3 °F - 64.4 °F 62% 29.89 in 10.0 mi WSW 10.4 mph 16.1 mph N/A   Clear
2:55 AM 78.1 °F - 64.8 °F 63% 29.88 in 10.0 mi WSW 9.2 mph - N/A   Clear
3:15 AM 77.9 °F - 64.9 °F 64% 29.89 in 10.0 mi WSW 9.2 mph - N/A   Clear
3:35 AM 77.4 °F - 65.1 °F 66% 29.89 in 10.0 mi WSW 9.2 mph - N/A   Clear
3:55 AM 76.6 °F - 65.3 °F 68% 29.90 in 10.0 mi WSW 9.2 mph - N/A   Clear
4:15 AM 75.9 °F - 65.3 °F 70% 29.90 in 10.0 mi WSW 9.2 mph - N/A   Clear
4:35 AM 75.2 °F - 65.8 °F 73% 29.91 in 10.0 mi SW 6.9 mph - N/A   Clear
4:55 AM 73.2 °F - 65.5 °F 77% 29.91 in 10.0 mi SW 10.4 mph - N/A   Clear
5:15 AM 73.4 °F - 65.7 °F 77% 29.91 in 10.0 mi WSW 8.1 mph - N/A   Clear
5:35 AM 74.3 °F - 65.8 °F 75% 29.91 in 10.0 mi WSW 6.9 mph - N/A   Clear
5:55 AM 73.9 °F - 65.8 °F 76% 29.92 in 10.0 mi WSW 6.9 mph - N/A   Clear
6:15 AM 73.8 °F - 65.8 °F 76% 29.93 in 10.0 mi WSW 6.9 mph - N/A   Clear
6:35 AM 73.4 °F - 65.8 °F 77% 29.93 in 10.0 mi WSW 6.9 mph - N/A   Clear
6:55 AM 73.9 °F - 66.2 °F 77% 29.94 in 10.0 mi West 6.9 mph - N/A   Clear
7:15 AM 75.2 °F - 66.4 °F 74% 29.94 in 10.0 mi West 9.2 mph - N/A   Clear
7:35 AM 75.6 °F - 66.6 °F 74% 29.94 in 10.0 mi West 6.9 mph - N/A   Clear
7:55 AM 76.5 °F - 66.7 °F 72% 29.94 in 10.0 mi West 9.2 mph - N/A   Clear
8:15 AM 77.9 °F - 67.3 °F 70% 29.94 in 10.0 mi West 10.4 mph - N/A   Clear
8:35 AM 79.0 °F - 67.8 °F 69% 29.95 in 10.0 mi WNW 9.2 mph - N/A   Clear
8:55 AM 80.2 °F 83.1 °F 68.7 °F 68% 29.94 in 10.0 mi West 9.2 mph - N/A   Scattered Clouds
9:15 AM 80.4 °F 83.2 °F 68.7 °F 67% 29.95 in 10.0 mi WNW 8.1 mph - N/A   Clear
9:35 AM 80.8 °F 83.9 °F 69.3 °F 68% 29.95 in 10.0 mi WNW 9.2 mph - N/A   Clear
9:55 AM 81.5 °F 85.1 °F 70.0 °F 68% 29.95 in 10.0 mi NW 9.2 mph - N/A   Clear
10:15 AM 82.4 °F 86.7 °F 70.9 °F 68% 29.95 in 10.0 mi NW 8.1 mph - N/A   Clear
10:35 AM 83.3 °F 88.7 °F 72.1 °F 69% 29.96 in 10.0 mi West 5.8 mph - N/A   Clear
10:55 AM 84.0 °F 89.9 °F 72.3 °F 68% 29.96 in 10.0 mi WNW 4.6 mph - N/A   Clear
11:15 AM 84.6 °F 91.0 °F 72.9 °F 68% 29.97 in 10.0 mi North 5.8 mph - N/A   Clear
11:35 AM 84.7 °F 91.4 °F 73.2 °F 68% 29.97 in 10.0 mi NNW 6.9 mph - N/A   Clear
11:55 AM 85.6 °F 93.4 °F 73.9 °F 68% 29.97 in 10.0 mi North 3.5 mph - N/A   Scattered Clouds
12:15 PM 86.2 °F 94.6 °F 74.3 °F 68% 29.97 in 10.0 mi North 5.8 mph - N/A   Scattered Clouds
12:35 PM 86.2 °F 94.6 °F 74.5 °F 68% 29.97 in 10.0 mi North 5.8 mph - N/A   Scattered Clouds
12:55 PM 86.5 °F 95.5 °F 75.0 °F 68% 29.97 in 10.0 mi NNE 5.8 mph - N/A   Scattered Clouds
1:15 PM 86.5 °F 95.5 °F 75.0 °F 68% 29.97 in 10.0 mi Calm Calm - N/A   Scattered Clouds
1:35 PM 87.6 °F 98.2 °F 75.7 °F 68% 29.96 in 10.0 mi Calm Calm - N/A   Scattered Clouds
1:55 PM 87.8 °F 98.1 °F 75.6 °F 67% 29.96 in 10.0 mi North 3.5 mph - N/A   Overcast
2:15 PM 86.5 °F 95.9 °F 75.2 °F 69% 29.97 in 10.0 mi NNE 3.5 mph - N/A   Overcast
2:35 PM 86.2 °F 96.0 °F 75.9 °F 71% 29.97 in 10.0 mi ENE 4.6 mph - N/A   Mostly Cloudy
2:55 PM 87.8 °F 99.1 °F 76.3 °F 69% 29.96 in 10.0 mi NE 8.1 mph - N/A   Scattered Clouds
3:15 PM 87.1 °F 98.3 °F 76.6 °F 71% 29.96 in 10.0 mi ENE 4.6 mph - N/A   Scattered Clouds
3:35 PM 86.4 °F 96.9 °F 76.3 °F 72% 29.96 in 10.0 mi NE 6.9 mph - N/A   Mostly Cloudy
3:55 PM 86.4 °F 96.4 °F 76.1 °F 71% 29.97 in 10.0 mi NE 10.4 mph - N/A   Scattered Clouds
4:15 PM 86.0 °F 96.4 °F 76.5 °F 73% 29.98 in 10.0 mi NE 10.4 mph - N/A   Scattered Clouds
4:35 PM 85.3 °F 94.6 °F 75.7 °F 73% 29.97 in 10.0 mi NE 12.7 mph - N/A   Scattered Clouds
4:55 PM 85.3 °F 94.6 °F 75.6 °F 73% 29.98 in 10.0 mi NNE 10.4 mph - N/A   Clear
5:15 PM 84.2 °F 92.3 °F 75.0 °F 74% 29.98 in 10.0 mi NE 9.2 mph - N/A   Scattered Clouds
5:35 PM 83.7 °F 91.0 °F 74.7 °F 74% 29.98 in 10.0 mi ENE 10.4 mph - N/A   Clear
5:55 PM 83.7 °F 91.3 °F 74.8 °F 75% 29.98 in 10.0 mi ENE 9.2 mph - N/A   Mostly Cloudy
6:15 PM 82.8 °F 89.0 °F 73.8 °F 74% 29.98 in 10.0 mi NE 8.1 mph - N/A   Mostly Cloudy
6:35 PM 82.4 °F 88.4 °F 73.8 °F 75% 29.98 in 10.0 mi NE 5.8 mph - N/A   Scattered Clouds
6:55 PM 81.5 °F 87.4 °F 74.3 °F 79% 29.99 in 10.0 mi NE 6.9 mph - N/A   Scattered Clouds
7:15 PM 81.0 °F 86.3 °F 74.3 °F 80% 29.99 in 10.0 mi NE 4.6 mph - N/A   Scattered Clouds
7:35 PM 80.2 °F 85.0 °F 74.3 °F 82% 29.99 in 10.0 mi NE 5.8 mph - N/A   Mostly Cloudy
7:55 PM 80.6 °F 85.5 °F 73.8 °F 80% 30.00 in 10.0 mi NE 4.6 mph - N/A   Scattered Clouds
8:15 PM 79.3 °F - 73.9 °F 83% 30.00 in 10.0 mi ENE 5.8 mph - N/A   Scattered Clouds
8:35 PM 80.2 °F 84.7 °F 73.6 °F 80% 30.01 in 10.0 mi East 8.1 mph - N/A   Scattered Clouds
8:55 PM 79.0 °F - 71.6 °F 78% 30.01 in 10.0 mi East 8.1 mph - N/A   Scattered Clouds
9:15 PM 77.9 °F - 71.1 °F 79% 30.02 in 10.0 mi East 9.2 mph - N/A   Clear
9:35 PM 76.8 °F - 70.2 °F 80% 30.02 in 10.0 mi East 10.4 mph - N/A   Clear
9:55 PM 75.6 °F - 69.8 °F 82% 30.03 in 10.0 mi East 8.1 mph - N/A   Clear
10:15 PM 75.2 °F - 69.4 °F 82% 30.03 in 10.0 mi East 6.9 mph - N/A   Clear
10:35 PM 75.2 °F - 69.6 °F 83% 30.04 in 10.0 mi East 5.8 mph - N/A   Scattered Clouds
10:55 PM 74.7 °F - 69.4 °F 84% 30.04 in 10.0 mi East 5.8 mph - N/A   Mostly Cloudy
11:15 PM 73.9 °F - 68.4 °F 83% 30.03 in 10.0 mi East 5.8 mph - N/A   Scattered Clouds
11:35 PM 73.4 °F - 67.5 °F 82% 30.04 in 10.0 mi East 6.9 mph - N/A   Clear
11:55 PM 72.9 °F - 67.1 °F 82% 30.03 in 10.0 mi East 5.8 mph - N/A   Clear